Zavalla, Texas
Current Conditions -  °F | °C
As of 6:53 AM on Thursday 23 Oct 2014 (Local Time) from KLFK Reporting Station
Clear Clear  
Wind Chill: 61°   Ceiling: Unl
Heat Index: 61°   Visibility: 10mi
Dew Point: 53°   Wind: 3mph
Humidity: 75%   Direction: 350°N
Pressure: 30.11"   Gusts: NA
Location:  31.16°N, 94.43°W
Report Text: KLFK 231153Z AUTO 35003KT 10SM CLR 16/12 A3011 RMK AO2 SLP194 T01610117 10178 20161 53003
Loading
Personal Weather Stations






























Interactive Weather Map
Tropical Storm Tracking
New forecast layout! Learn more

10-Day Weather Forecast

Advertisements
Track Severe Weather on mobile